x

Fowey Rock, Fl (fwyf1) Weather Station

5:00pm - Sat 18th Aug 2018 All times are EDT. -4 hours from GMT.

  • Wind
    7mph, 7mph gusts
  • Sea Temp 87°f
  • Air Temp 85°f
  • Sea Pressure 1018.4mb
  • Fowey Rock, Fl
  • Fowey Rock, Fl

More Historic Weather Station data

Upgrade to MSW Pro to gain access to the past 30 days of data for over 8000 Wavebouys and Weather Stations around the globe.

Join

Comparision Forecast

View Surf forecast
   
Sat 08/18 5:00pm 7 7 mph 1018.4mb 87f 85f
4:00pm 9 9 mph 1018.5mb 87f 85f
3:00pm 9 11 mph 1019.1mb 87f 84f
2:00pm 10 11 mph 1019.6mb 87f 84f
1:00pm 11 14 mph 1020.2mb 87f 84f
12:00pm 13 14 mph 1020.9mb 87f 85f
11:00am 13 14 mph 1021mb 87f 84f
10:00am 11 13 mph 1020.8mb 86f 84f
9:00am 13 14 mph 1020.6mb 86f 84f
8:00am 15 16 mph 1020.5mb 86f 84f
7:00am 13 14 mph 1020.2mb 86f 84f
6:00am 13 14 mph 1019.7mb 86f 84f
5:00am 13 14 mph 1019.8mb 86f 84f
4:00am 11 13 mph 1020.1mb 86f 84f
3:00am 9 10 mph 1020.6mb 86f 84f
2:00am 7 8 mph 1021.2mb 86f 82f
1:00am 14 15 mph 1021.3mb 87f 84f
12:00am 14 15 mph 1021.6mb 87f 84f
Fri 08/17 11:00pm 9 11 mph 1021.8mb 87f 82f
10:00pm 13 14 mph 1021.4mb 87f 84f
9:00pm 9 11 mph 1020.9mb 87f 83f
8:00pm 10 11 mph 1020.7mb 87f 82f
7:00pm 11 11 mph 1020.1mb 87f 85f
6:00pm 8 8 mph 1021mb 87f 84f
5:00pm 6 6 mph 1021.1mb 86f 85f
4:00pm 13 14 mph 1021.1mb 86f 83f
3:00pm 13 14 mph 1021.5mb 86f 85f
2:00pm 14 15 mph 1021.8mb 86f 84f
1:00pm 17 18 mph 1022.3mb 85f 85f
12:00pm 20 20 mph 1022.5mb 85f 85f
11:00am 17 20 mph 1022.3mb 86f 85f
10:00am 17 20 mph 1022.1mb 86f 85f
9:00am 18 21 mph 1021.6mb 86f 85f
8:00am 15 20 mph 1021.6mb 86f 84f
7:00am 18 20 mph 1021mb 86f 84f
6:00am 18 20 mph 1020.9mb 86f 84f
5:00am 17 18 mph 1021mb 86f 84f
4:00am 17 18 mph 1021.2mb 86f 84f
3:00am 16 17 mph 1021.8mb 86f 84f
2:00am 15 17 mph 1022.4mb 86f 85f
1:00am 15 16 mph 1022.7mb 87f 84f
12:00am 11 13 mph 1023mb 87f 85f
Thu 08/16 11:00pm 13 14 mph 1022.7mb 87f 85f
10:00pm 13 14 mph 1022.8mb 87f 85f
9:00pm 9 10 mph 1021.8mb 87f 85f
8:00pm 13 14 mph 1021mb 87f 84f
7:00pm 13 14 mph 1020.7mb 86f 85f
6:00pm 11 13 mph 1020.7mb 86f 85f
5:00pm 13 14 mph 1020.8mb 86f 85f
4:00pm 14 15 mph 1021mb 86f 85f
3:00pm 15 16 mph 1021.2mb 86f 85f
2:00pm 15 16 mph 1021.4mb 86f 84f
1:00pm 16 17 mph 1021.7mb 85f 84f
12:00pm 15 16 mph 1021.7mb 85f 85f
11:00am 15 17 mph 1021.7mb 85f 84f
10:00am 17 18 mph 1021.3mb 85f 84f
9:00am 22 23 mph 1020.7mb 85f 84f
8:00am 22 25 mph 1020.2mb 85f 85f
7:00am 20 21 mph 1020mb 85f 84f
6:00am 17 20 mph 1019.4mb 85f 84f
5:00am 16 18 mph 1019.3mb 85f 84f
4:00am 17 20 mph 1019.1mb 85f 84f
3:00am 17 18 mph 1019mb 85f 84f
2:00am 13 14 mph 1019.9mb 85f 84f
1:00am 16 17 mph 1019.8mb 85f 84f
12:00am 16 17 mph 1020.1mb 85f 82f
Wed 08/15 11:00pm 21 22 mph 1020.7mb 85f 82f
10:00pm 14 15 mph 1020.4mb 85f 85f
9:00pm 10 11 mph 1019.8mb 86f 85f
8:00pm 10 11 mph 1019.3mb 86f 85f
7:00pm 13 13 mph 1018.5mb 86f 85f
6:00pm 13 14 mph 1017.9mb 86f 85f
5:00pm 11 13 mph 1018mb 86f 85f
4:00pm 11 11 mph 1018.8mb 85f 85f
3:00pm 15 16 mph 1019.4mb 85f 85f
2:00pm 14 15 mph 1019.6mb 85f 85f
1:00pm 14 16 mph 1019.8mb 85f 85f
12:00pm 15 18 mph 1020.1mb 85f 85f
11:00am 14 15 mph 1020.1mb 85f 85f
10:00am 13 14 mph 1019.8mb 85f 85f
9:00am 15 16 mph 1019.2mb 85f 85f
8:00am 16 18 mph 1018.4mb 85f 84f
7:00am 13 14 mph 1018mb 85f 84f
6:00am 15 17 mph 1017.8mb 85f 84f
5:00am 16 18 mph 1017.5mb 85f 84f
4:00am 15 16 mph 1017.5mb 85f 84f
3:00am 13 16 mph 1017.8mb 85f 84f
2:00am 13 15 mph 1018.1mb 85f 84f
1:00am 14 15 mph 1018.4mb 85f 85f
12:00am 2 3 mph 1018.8mb 85f 83f
Tue 08/14 11:00pm 6 7 mph 1019.1mb 85f 83f